Time;durP1;ratioP1;P1;durP2;ratioP2;P2;SDS_P1;SDS_P2;PMS_P1;PMS_P2;Temp;Humidity;BMP_temperature;BMP_pressure;BME280_temperature;BME280_humidity;BME280_pressure;Samples;Min_cycle;Max_cycle;Signal;HPM_P1;HPM_P2
2023/03/28 00:02:10;;;;;;;5.43;1.80;;;1.70;99.90;;;;;;6239068;23;20348;-83
2023/03/28 00:04:36;;;;;;;4.50;1.60;;;1.40;99.90;;;;;;6246143;23;20344;-84
2023/03/28 00:07:02;;;;;;;4.13;1.45;;;1.30;99.90;;;;;;6220246;23;20355;-83
2023/03/28 00:09:28;;;;;;;3.40;1.20;;;1.30;99.90;;;;;;6247289;23;20352;-82
2023/03/28 00:11:54;;;;;;;5.22;1.50;;;1.20;99.90;;;;;;6246517;23;20368;-81
2023/03/28 00:14:20;;;;;;;4.38;1.23;;;1.20;99.90;;;;;;6245237;23;20351;-81
2023/03/28 00:16:46;;;;;;;7.03;1.90;;;1.30;99.90;;;;;;6243548;23;20345;-84
2023/03/28 00:19:15;;;;;;;3.80;1.40;;;1.20;99.90;;;;;;6243156;23;20376;-81
2023/03/28 00:21:47;;;;;;;3.10;1.37;;;1.30;99.90;;;;;;6215404;23;20349;-86
2023/03/28 00:24:15;;;;;;;5.72;1.50;;;1.30;99.90;;;;;;6244802;23;20404;-84
2023/03/28 00:26:42;;;;;;;3.35;1.50;;;1.10;99.90;;;;;;6248911;23;20356;-84
2023/03/28 00:29:14;;;;;;;5.63;1.70;;;1.10;99.90;;;;;;6222862;23;20447;-84
2023/03/28 00:31:40;;;;;;;4.87;1.60;;;1.40;99.90;;;;;;6247843;23;20340;-84
2023/03/28 00:34:06;;;;;;;4.25;1.55;;;1.00;99.90;;;;;;6222129;23;20375;-82
2023/03/28 00:36:33;;;;;;;4.30;1.47;;;1.00;99.90;;;;;;6248546;23;20392;-84
2023/03/28 00:39:04;;;;;;;4.78;1.80;;;1.00;99.90;;;;;;6221182;23;20353;-83
2023/03/28 00:41:31;;;;;;;6.73;1.57;;;1.30;99.90;;;;;;6247501;23;20348;-85
2023/03/28 00:43:58;;;;;;;4.97;2.00;;;1.00;99.90;;;;;;6246410;23;20372;-84
2023/03/28 00:46:34;;;;;;;5.97;1.63;;;1.00;99.90;;;;;;6244523;23;20343;-83
2023/03/28 00:49:20;;;;;;;4.85;1.52;;;1.10;99.90;;;;;;6245709;23;20336;-85
2023/03/28 00:51:57;;;;;;;5.00;1.65;;;1.10;99.90;;;;;;6218973;23;20348;-84
2023/03/28 00:54:26;;;;;;;6.35;2.17;;;1.10;99.90;;;;;;6244714;23;20353;-83
2023/03/28 00:57:00;;;;;;;5.45;1.60;;;1.10;99.90;;;;;;6241827;23;20402;-83
2023/03/28 00:59:29;;;;;;;6.68;2.08;;;1.00;99.90;;;;;;6214072;23;20649;-85
2023/03/28 01:01:55;;;;;;;5.00;1.70;;;1.00;99.90;;;;;;6244936;23;20398;-84
2023/03/28 01:04:23;;;;;;;4.30;1.77;;;0.90;99.90;;;;;;6226891;22;20404;-83
2023/03/28 01:06:54;;;;;;;4.45;1.80;;;1.10;99.90;;;;;;6241037;22;20338;-83
2023/03/28 01:09:22;;;;;;;7.72;1.92;;;1.20;99.90;;;;;;6264940;22;20380;-83
2023/03/28 01:11:49;;;;;;;5.25;1.90;;;1.10;99.90;;;;;;6220297;23;20353;-83
2023/03/28 01:14:20;;;;;;;6.93;2.00;;;1.20;99.90;;;;;;6243678;23;20367;-85
2023/03/28 01:16:46;;;;;;;5.57;1.83;;;1.00;99.90;;;;;;6215889;23;20897;-83
2023/03/28 01:19:49;;;;;;;9.95;2.15;;;1.00;99.90;;;;;;6213589;23;20716;-83
2023/03/28 01:22:27;;;;;;;7.53;2.00;;;1.00;99.90;;;;;;6243830;23;20341;-84
2023/03/28 01:25:34;;;;;;;6.93;2.40;;;1.20;99.90;;;;;;6249635;23;20442;-83
2023/03/28 01:28:15;;;;;;;7.70;2.20;;;1.10;99.90;;;;;;6243673;23;20348;-86
2023/03/28 01:31:11;;;;;;;6.88;2.40;;;1.40;99.90;;;;;;6244462;23;20337;-84
2023/03/28 01:34:02;;;;;;;8.30;2.13;;;1.40;99.90;;;;;;6243888;23;20721;-84
2023/03/28 01:36:52;;;;;;;7.40;2.65;;;1.50;99.90;;;;;;6247130;23;20340;-83
2023/03/28 01:39:40;;;;;;;6.30;2.45;;;1.50;99.90;;;;;;6247983;23;20836;-85
2023/03/28 01:42:09;;;;;;;5.60;2.73;;;1.60;99.90;;;;;;6222132;23;20402;-83
2023/03/28 01:44:46;;;;;;;6.80;3.00;;;1.40;99.90;;;;;;6249585;23;20399;-83
2023/03/28 01:47:39;;;;;;;7.43;3.23;;;1.30;99.90;;;;;;6220919;23;20387;-82
2023/03/28 01:50:43;;;;;;;8.43;3.10;;;1.30;99.90;;;;;;6246458;23;20360;-86
2023/03/28 01:53:23;;;;;;;8.10;3.35;;;1.20;99.90;;;;;;6227966;23;20799;-84
2023/03/28 01:56:10;;;;;;;8.07;3.10;;;1.50;99.90;;;;;;6218403;23;20360;-85
2023/03/28 01:58:45;;;;;;;10.20;3.40;;;1.60;99.90;;;;;;6246458;23;20352;-81
2023/03/28 02:01:18;;;;;;;8.65;3.00;;;1.70;99.90;;;;;;6183453;23;21045;-84
2023/03/28 02:03:54;;;;;;;9.13;3.50;;;1.90;99.90;;;;;;6199672;23;20518;-87
2023/03/28 02:06:22;;;;;;;8.95;2.97;;;1.70;99.90;;;;;;6161069;23;20348;-85
2023/03/28 02:08:51;;;;;;;9.23;3.22;;;1.60;99.90;;;;;;6184769;23;20723;-85
2023/03/28 02:11:17;;;;;;;9.13;3.00;;;1.70;99.90;;;;;;6159770;23;20457;-83
2023/03/28 02:14:08;;;;;;;9.00;3.00;;;1.50;99.90;;;;;;6185461;23;20355;-87
2023/03/28 02:16:37;;;;;;;7.90;3.10;;;1.60;99.90;;;;;;6162739;23;20854;-87
2023/03/28 02:19:05;;;;;;;12.63;3.27;;;2.00;99.90;;;;;;6184882;23;20343;-85
2023/03/28 02:21:50;;;;;;;9.77;3.40;;;1.40;99.90;;;;;;6159115;23;20375;-86
2023/03/28 02:24:16;;;;;;;8.68;2.70;;;1.70;99.90;;;;;;6158269;23;21016;-84
2023/03/28 02:26:42;;;;;;;10.40;2.92;;;1.70;99.90;;;;;;6186055;23;20352;-83
2023/03/28 02:29:09;;;;;;;7.07;2.90;;;2.00;99.90;;;;;;6160325;23;20382;-85
2023/03/28 02:31:36;;;;;;;9.13;2.83;;;2.20;99.90;;;;;;6184821;23;20366;-85
2023/03/28 02:34:02;;;;;;;6.47;2.83;;;1.70;99.90;;;;;;6160351;23;20363;-83
2023/03/28 02:36:40;;;;;;;6.35;3.00;;;1.60;99.90;;;;;;6159661;23;20356;-86
2023/03/28 02:39:45;;;;;;;9.52;3.03;;;1.40;99.90;;;;;;6160752;23;20351;-85
2023/03/28 02:43:00;;;;;;;9.30;2.80;;;1.30;99.90;;;;;;6186232;23;20410;-83
2023/03/28 02:45:38;;;;;;;8.97;3.20;;;1.40;99.90;;;;;;6185144;23;20375;-86
2023/03/28 02:48:43;;;;;;;8.07;3.00;;;1.20;99.90;;;;;;6159344;23;20383;-86
2023/03/28 02:51:22;;;;;;;9.90;3.03;;;1.20;99.90;;;;;;6159416;23;20435;-84
2023/03/28 02:53:51;;;;;;;6.38;2.38;;;1.10;99.90;;;;;;6186600;23;20362;-83
2023/03/28 02:56:40;;;;;;;6.93;2.58;;;1.20;99.90;;;;;;6187407;23;20371;-84
2023/03/28 02:59:18;;;;;;;9.80;3.10;;;1.10;99.90;;;;;;6186613;23;20348;-83
2023/03/28 03:01:44;;;;;;;10.20;3.22;;;1.10;99.90;;;;;;6185895;23;20376;-85
2023/03/28 03:04:12;;;;;;;8.85;2.80;;;0.90;99.90;;;;;;6186402;23;20368;-82
2023/03/28 03:06:38;;;;;;;7.47;2.83;;;0.90;99.90;;;;;;6159021;23;20350;-82
2023/03/28 03:09:04;;;;;;;10.18;2.95;;;1.20;99.90;;;;;;6153640;23;20387;-83
2023/03/28 03:11:31;;;;;;;10.38;3.10;;;0.80;99.90;;;;;;6186262;23;20379;-86
2023/03/28 03:13:59;;;;;;;9.73;2.97;;;0.80;99.90;;;;;;6185721;23;20339;-85
2023/03/28 03:16:24;;;;;;;8.55;2.70;;;1.00;99.90;;;;;;6186552;23;20377;-86
2023/03/28 03:18:51;;;;;;;10.73;2.80;;;;;;;;;;6188555;23;20787;-84
2023/03/28 03:21:20;;;;;;;8.20;2.60;;;;;;;;;;6189674;23;20343;-82
2023/03/28 03:23:46;;;;;;;7.00;2.72;;;0.60;99.90;;;;;;6163248;23;20377;-83
2023/03/28 03:26:11;;;;;;;8.05;2.60;;;0.00;99.90;;;;;;6187927;23;20391;-83
2023/03/28 03:28:38;;;;;;;10.95;2.90;;;0.60;99.90;;;;;;6188594;23;20822;-84
2023/03/28 03:31:04;;;;;;;8.67;2.80;;;0.90;99.90;;;;;;6187853;23;20409;-86
2023/03/28 03:33:30;;;;;;;7.80;2.60;;;0.40;99.90;;;;;;6188636;23;20352;-85
2023/03/28 03:35:55;;;;;;;9.15;2.78;;;0.70;99.90;;;;;;6188206;23;20409;-83
2023/03/28 03:38:21;;;;;;;9.20;2.65;;;0.90;99.90;;;;;;6188190;23;21001;-84
2023/03/28 03:40:47;;;;;;;7.97;2.70;;;0.20;99.90;;;;;;6190836;23;20387;-85
2023/03/28 03:43:13;;;;;;;7.50;2.25;;;0.50;99.90;;;;;;6189475;23;20462;-85
2023/03/28 03:45:39;;;;;;;6.50;2.70;;;0.60;99.90;;;;;;6189205;23;20740;-82
2023/03/28 03:48:05;;;;;;;10.43;3.00;;;0.60;99.90;;;;;;6164575;23;20366;-85
2023/03/28 03:50:31;;;;;;;9.48;2.92;;;0.20;99.90;;;;;;6191873;23;20348;-82
2023/03/28 03:52:57;;;;;;;9.75;2.83;;;0.40;99.90;;;;;;6161872;23;20377;-83
2023/03/28 03:55:25;;;;;;;7.15;2.72;;;0.20;99.90;;;;;;6163109;23;20351;-85
2023/03/28 03:57:51;;;;;;;7.70;2.85;;;0.20;99.90;;;;;;6160188;23;20360;-85
2023/03/28 04:00:17;;;;;;;8.37;2.83;;;0.30;99.90;;;;;;6187309;23;20453;-86
2023/03/28 04:02:43;;;;;;;7.03;2.67;;;0.00;99.90;;;;;;6186872;23;20386;-85
2023/03/28 04:05:09;;;;;;;8.55;2.58;;;0.30;99.90;;;;;;6186076;23;20347;-85
2023/03/28 04:07:35;;;;;;;5.65;2.50;;;-0.10;99.90;;;;;;6185096;23;20355;-85
2023/03/28 04:10:01;;;;;;;7.07;2.70;;;0.10;99.90;;;;;;6159714;23;20351;-88
2023/03/28 04:12:27;;;;;;;6.38;2.47;;;0.20;99.90;;;;;;6159516;23;20351;-83
2023/03/28 04:14:52;;;;;;;9.18;2.60;;;0.10;99.90;;;;;;6160783;23;20347;-86
2023/03/28 04:17:20;;;;;;;9.02;2.60;;;0.10;99.90;;;;;;6188452;23;20351;-81
2023/03/28 04:19:48;;;;;;;9.43;2.70;;;0.40;99.90;;;;;;6158711;23;20683;-83
2023/03/28 04:22:17;;;;;;;7.45;2.60;;;0.10;99.90;;;;;;6186335;23;20359;-86
2023/03/28 04:24:43;;;;;;;5.53;2.53;;;-0.10;99.90;;;;;;6186203;23;20344;-83
2023/03/28 04:27:10;;;;;;;5.40;2.50;;;-0.10;99.90;;;;;;6159919;23;20363;-84
2023/03/28 04:29:36;;;;;;;5.43;2.53;;;-0.30;99.90;;;;;;6193068;23;20363;-81
2023/03/28 04:32:04;;;;;;;7.32;2.40;;;0.40;99.90;;;;;;6188886;23;20355;-84
2023/03/28 04:34:34;;;;;;;6.93;2.70;;;0.10;99.90;;;;;;6158330;23;20698;-84
2023/03/28 04:37:01;;;;;;;6.03;2.47;;;0.20;99.90;;;;;;6185139;23;20351;-84
2023/03/28 04:39:34;;;;;;;10.77;3.07;;;-0.20;99.90;;;;;;6185857;23;20410;-81
2023/03/28 04:42:00;;;;;;;6.30;2.53;;;-0.20;99.90;;;;;;6190707;23;20666;-81
2023/03/28 04:44:28;;;;;;;8.23;2.42;;;-0.20;99.90;;;;;;6170462;23;20406;-85
2023/03/28 04:46:55;;;;;;;7.60;2.85;;;0.10;99.90;;;;;;6167520;23;20348;-83
2023/03/28 04:49:24;;;;;;;6.15;2.60;;;0.30;99.90;;;;;;6194525;23;20348;-83
2023/03/28 04:51:50;;;;;;;8.35;2.58;;;0.10;99.90;;;;;;6188212;23;20350;-83
2023/03/28 04:54:16;;;;;;;6.43;2.97;;;-0.10;99.90;;;;;;6188414;23;20443;-83
2023/03/28 04:56:48;;;;;;;8.20;3.00;;;-0.30;99.90;;;;;;6183577;23;20344;-83
2023/03/28 04:59:15;;;;;;;7.68;3.10;;;-0.30;99.90;;;;;;6158815;23;20687;-83
2023/03/28 05:01:47;;;;;;;10.02;2.95;;;-0.40;99.90;;;;;;6161402;23;20809;-84
2023/03/28 05:04:20;;;;;;;7.22;2.83;;;-0.10;99.90;;;;;;6162006;23;20410;-81
2023/03/28 05:06:48;;;;;;;7.05;2.75;;;-0.30;99.90;;;;;;6189018;23;20367;-84
2023/03/28 05:09:15;;;;;;;7.68;2.70;;;-0.30;99.90;;;;;;6189241;23;20340;-85
2023/03/28 05:11:41;;;;;;;8.03;2.87;;;-0.20;99.90;;;;;;6186649;23;20339;-85
2023/03/28 05:14:07;;;;;;;7.55;2.97;;;-0.10;99.90;;;;;;6187910;23;20348;-84
2023/03/28 05:16:33;;;;;;;5.95;2.70;;;0.00;99.90;;;;;;6188061;23;20339;-84
2023/03/28 05:19:00;;;;;;;8.52;2.80;;;0.00;99.90;;;;;;6161492;23;20363;-82
2023/03/28 05:21:25;;;;;;;8.20;3.33;;;0.10;99.90;;;;;;6159651;23;20439;-84
2023/03/28 05:23:51;;;;;;;6.40;2.77;;;-0.20;99.90;;;;;;6185312;23;20399;-81
2023/03/28 05:26:17;;;;;;;8.10;3.10;;;0.20;99.90;;;;;;6184382;23;20853;-84
2023/03/28 05:28:42;;;;;;;8.70;2.80;;;-0.20;99.90;;;;;;6183644;23;20351;-83
2023/03/28 05:31:08;;;;;;;8.57;3.10;;;-0.20;99.90;;;;;;6182312;23;20373;-83
2023/03/28 05:33:35;;;;;;;8.77;3.20;;;0.20;99.90;;;;;;6157586;23;20883;-87
2023/03/28 05:36:00;;;;;;;7.03;2.65;;;0.10;99.90;;;;;;6156392;23;20356;-86
2023/03/28 05:38:28;;;;;;;8.25;2.88;;;0.20;99.90;;;;;;6184045;23;20724;-85
2023/03/28 05:40:54;;;;;;;9.27;2.88;;;0.10;99.90;;;;;;6158448;23;20466;-85
2023/03/28 05:43:19;;;;;;;6.80;2.58;;;0.00;99.90;;;;;;6182749;23;20387;-85
2023/03/28 05:45:48;;;;;;;7.05;2.55;;;0.10;99.90;;;;;;6158809;23;20363;-85
2023/03/28 05:48:14;;;;;;;4.57;2.50;;;0.40;99.90;;;;;;6134346;23;20364;-84
2023/03/28 05:50:40;;;;;;;5.47;2.42;;;0.40;99.90;;;;;;6188486;23;20922;-83
2023/03/28 05:53:06;;;;;;;5.25;2.50;;;0.50;99.90;;;;;;6162344;23;20355;-83
2023/03/28 05:55:32;;;;;;;5.25;2.58;;;0.80;99.90;;;;;;6187565;23;20352;-82
2023/03/28 05:57:58;;;;;;;5.63;2.85;;;1.10;99.90;;;;;;6185368;23;20434;-84
2023/03/28 06:00:24;;;;;;;8.10;2.50;;;0.70;99.90;;;;;;6160289;23;20352;-84
2023/03/28 06:02:50;;;;;;;6.05;2.22;;;0.80;99.90;;;;;;6190073;23;20375;-83
2023/03/28 06:05:17;;;;;;;5.47;2.30;;;1.40;99.90;;;;;;6186675;23;20355;-87
2023/03/28 06:07:44;;;;;;;5.60;2.78;;;1.30;99.90;;;;;;6185643;23;20346;-85
2023/03/28 06:10:11;;;;;;;4.93;2.30;;;1.70;99.90;;;;;;6160135;23;20348;-86
2023/03/28 06:12:38;;;;;;;7.05;2.67;;;1.30;99.90;;;;;;6182755;23;20409;-87
2023/03/28 06:15:04;;;;;;;4.88;1.90;;;1.40;99.90;;;;;;6182468;23;20449;-85
2023/03/28 06:17:30;;;;;;;5.28;2.10;;;1.50;99.90;;;;;;6182090;23;20352;-86
2023/03/28 06:19:56;;;;;;;6.05;2.20;;;1.60;99.90;;;;;;6183369;23;20649;-85
2023/03/28 06:22:22;;;;;;;6.53;2.20;;;1.70;99.90;;;;;;6157784;23;20425;-85
2023/03/28 06:24:48;;;;;;;6.32;2.10;;;1.70;99.90;;;;;;6158284;23;20422;-85
2023/03/28 06:27:13;;;;;;;4.00;1.93;;;1.70;99.90;;;;;;6157776;23;20799;-87
2023/03/28 06:29:39;;;;;;;5.20;1.80;;;1.70;99.90;;;;;;6154226;23;20485;-85
2023/03/28 06:32:05;;;;;;;4.57;2.00;;;1.90;99.90;;;;;;6181727;23;20343;-86
2023/03/28 06:34:34;;;;;;;6.37;2.10;;;2.00;99.90;;;;;;6156375;23;20374;-86
2023/03/28 06:37:00;;;;;;;5.00;1.73;;;2.10;99.90;;;;;;6182529;23;20431;-88
2023/03/28 06:39:26;;;;;;;4.82;2.10;;;2.30;99.90;;;;;;6157107;23;20411;-87
2023/03/28 06:41:52;;;;;;;2.90;1.70;;;2.40;99.90;;;;;;6157783;23;20427;-85
2023/03/28 06:44:18;;;;;;;4.25;1.90;;;2.40;99.90;;;;;;6155574;23;20450;-87
2023/03/28 06:46:43;;;;;;;5.30;1.95;;;2.50;99.90;;;;;;6157821;23;20364;-85
2023/03/28 06:49:09;;;;;;;2.95;1.80;;;2.60;99.90;;;;;;6183911;23;20344;-84
2023/03/28 06:51:35;;;;;;;3.47;1.73;;;2.70;99.90;;;;;;6159458;23;20379;-83
2023/03/28 06:54:01;;;;;;;2.20;1.50;;;3.00;99.90;;;;;;6133963;23;20352;-86
2023/03/28 06:56:27;;;;;;;2.70;1.73;;;3.10;99.90;;;;;;6184430;23;20380;-87
2023/03/28 06:58:53;;;;;;;3.47;1.60;;;3.50;99.90;;;;;;6182576;23;20438;-85
2023/03/28 07:01:19;;;;;;;3.23;1.70;;;3.80;99.90;;;;;;6181427;23;20425;-85
2023/03/28 07:03:44;;;;;;;4.97;1.50;;;4.30;99.90;;;;;;6154330;23;20375;-83
2023/03/28 07:06:10;;;;;;;3.17;1.40;;;4.90;99.90;;;;;;6182148;23;20410;-85
2023/03/28 07:08:36;;;;;;;5.15;1.58;;;5.30;99.90;;;;;;6153579;23;20366;-87
2023/03/28 07:11:03;;;;;;;3.63;1.40;;;5.70;99.90;;;;;;6179446;23;20778;-85
2023/03/28 07:13:28;;;;;;;3.22;1.30;;;6.70;99.90;;;;;;6154507;23;20411;-84
2023/03/28 07:16:05;;;;;;;3.20;1.20;;;6.90;99.90;;;;;;6181452;23;20445;-87
2023/03/28 07:18:31;;;;;;;3.00;1.30;;;7.00;99.90;;;;;;6154150;23;20387;-84
2023/03/28 07:20:57;;;;;;;3.15;1.30;;;7.60;99.90;;;;;;6155132;23;20680;-84
2023/03/28 07:23:22;;;;;;;1.50;1.10;;;7.80;99.90;;;;;;6180087;23;20382;-79
2023/03/28 07:25:48;;;;;;;4.60;1.50;;;8.40;99.90;;;;;;6154832;23;20348;-78
2023/03/28 07:28:14;;;;;;;2.70;1.10;;;8.80;99.90;;;;;;6161262;23;20352;-83
2023/03/28 07:30:40;;;;;;;3.03;1.50;;;9.20;99.90;;;;;;6171269;23;20364;-83
2023/03/28 07:33:22;;;;;;;4.07;1.40;;;8.30;99.90;;;;;;6198325;23;20367;-83
2023/03/28 07:35:48;;;;;;;2.33;1.15;;;8.60;99.90;;;;;;6161015;23;20413;-84
2023/03/28 07:38:14;;;;;;;2.53;1.33;;;8.60;99.90;;;;;;6157235;23;20347;-84
2023/03/28 07:40:40;;;;;;;4.03;1.45;;;8.40;99.90;;;;;;6155938;23;20352;-85
2023/03/28 07:43:06;;;;;;;3.08;1.40;;;8.80;99.90;;;;;;6156144;23;20371;-82
2023/03/28 07:45:35;;;;;;;2.00;1.10;;;8.40;99.90;;;;;;6158284;23;20356;-85
2023/03/28 07:48:05;;;;;;;3.28;1.40;;;8.30;99.90;;;;;;6155672;23;20428;-85
2023/03/28 07:50:31;;;;;;;2.88;1.02;;;8.70;99.90;;;;;;6148131;23;20442;-85
2023/03/28 07:52:59;;;;;;;3.08;1.27;;;8.80;99.90;;;;;;6155996;23;20418;-84
2023/03/28 07:55:27;;;;;;;2.93;1.70;;;8.40;99.90;;;;;;6158152;23;20347;-84
2023/03/28 07:57:53;;;;;;;4.03;1.95;;;8.70;99.90;;;;;;6160579;23;20347;-85
2023/03/28 08:00:22;;;;;;;2.70;1.30;;;9.00;99.90;;;;;;6187583;23;20825;-86
2023/03/28 08:02:50;;;;;;;3.80;1.40;;;9.70;99.90;;;;;;6156365;23;20514;-87
2023/03/28 08:05:16;;;;;;;2.40;1.20;;;9.80;99.90;;;;;;6158006;23;20462;-87
2023/03/28 08:07:44;;;;;;;1.58;1.10;;;9.00;99.90;;;;;;6158787;23;20877;-85
2023/03/28 08:10:13;;;;;;;4.47;1.42;;;9.00;99.90;;;;;;6166225;23;20362;-86
2023/03/28 08:12:39;;;;;;;2.97;1.35;;;9.20;99.90;;;;;;6165591;23;20371;-87
2023/03/28 08:15:07;;;;;;;3.47;1.20;;;9.70;99.90;;;;;;6162840;23;20368;-87
2023/03/28 08:17:33;;;;;;;2.40;1.00;;;10.00;99.90;;;;;;6135183;23;20417;-87
2023/03/28 08:19:59;;;;;;;1.63;1.10;;;10.70;99.90;;;;;;6185429;23;20384;-86
2023/03/28 08:22:26;;;;;;;2.60;1.30;;;10.90;99.90;;;;;;6186667;23;20346;-85
2023/03/28 08:24:52;;;;;;;2.83;1.30;;;10.90;99.90;;;;;;6159409;23;20351;-86
2023/03/28 08:27:18;;;;;;;4.05;0.98;;;9.80;99.90;;;;;;6160333;23;20402;-87
2023/03/28 08:29:43;;;;;;;2.38;1.00;;;9.30;99.90;;;;;;6159838;23;20355;-87
2023/03/28 08:32:09;;;;;;;2.33;1.27;;;8.90;99.90;;;;;;6184110;23;20348;-85
2023/03/28 08:34:36;;;;;;;4.45;2.08;;;8.80;99.90;;;;;;6181154;23;20466;-87
2023/03/28 08:37:04;;;;;;;2.53;1.30;;;8.60;99.90;;;;;;6156962;23;20444;-86
2023/03/28 08:39:32;;;;;;;2.90;1.58;;;8.10;99.90;;;;;;6156929;23;20403;-86
2023/03/28 08:42:25;;;;;;;2.13;1.10;;;8.80;99.90;;;;;;6157411;23;20352;-85
2023/03/28 08:45:13;;;;;;;2.67;1.30;;;9.40;99.90;;;;;;6162250;23;20379;-84
2023/03/28 08:48:10;;;;;;;1.92;1.20;;;9.40;99.90;;;;;;6180547;23;20467;-85
2023/03/28 08:51:01;;;;;;;1.80;0.90;;;9.50;99.90;;;;;;6160107;23;20359;-85
2023/03/28 08:53:37;;;;;;;1.63;1.10;;;9.20;99.90;;;;;;6143142;23;20374;-84
2023/03/28 08:56:06;;;;;;;2.65;0.98;;;9.10;99.90;;;;;;6158695;23;20439;-83
2023/03/28 08:58:50;;;;;;;2.13;1.00;;;9.60;99.90;;;;;;6183980;23;20348;-86
2023/03/28 09:01:21;;;;;;;2.17;1.13;;;9.80;99.90;;;;;;6185607;23;20348;-84
2023/03/28 09:03:51;;;;;;;1.50;1.00;;;9.40;99.90;;;;;;6189165;23;20374;-86
2023/03/28 09:06:58;;;;;;;2.08;1.02;;;9.80;99.90;;;;;;6161738;23;20402;-84
2023/03/28 09:09:38;;;;;;;2.23;1.13;;;9.90;99.90;;;;;;6066254;23;20382;-84
2023/03/28 09:12:19;;;;;;;1.50;0.90;;;9.20;99.90;;;;;;6152508;23;20382;-86
2023/03/28 09:15:07;;;;;;;2.20;1.00;;;9.50;99.90;;;;;;6187653;23;20343;-83
2023/03/28 09:17:59;;;;;;;1.02;0.80;;;9.30;99.90;;;;;;6186604;23;20343;-84
2023/03/28 09:21:00;;;;;;;1.15;0.85;;;9.40;99.90;;;;;;6160172;23;20435;-86
2023/03/28 09:24:05;;;;;;;1.50;0.60;;;9.10;99.90;;;;;;6155369;23;20376;-85
2023/03/28 09:26:39;;;;;;;1.30;0.80;;;9.20;99.90;;;;;;6153473;23;20683;-84
2023/03/28 09:29:12;;;;;;;1.38;0.88;;;10.20;99.90;;;;;;6160093;23;20414;-86
2023/03/28 09:31:46;;;;;;;2.33;1.20;;;9.70;99.90;;;;;;6158745;23;20367;-86
2023/03/28 09:34:26;;;;;;;1.08;0.95;;;8.90;99.90;;;;;;6186802;23;20358;-84
2023/03/28 09:36:55;;;;;;;3.45;1.00;;;9.30;99.90;;;;;;6159166;23;20434;-84
2023/03/28 09:39:39;;;;;;;1.50;0.77;;;10.10;99.90;;;;;;6157996;23;20671;-85
2023/03/28 09:42:27;;;;;;;1.30;0.80;;;9.20;99.90;;;;;;6158329;23;20379;-86
2023/03/28 09:45:34;;;;;;;1.40;0.80;;;9.00;99.90;;;;;;6156920;23;20768;-85
2023/03/28 09:48:02;;;;;;;2.75;1.20;;;8.40;99.90;;;;;;6125141;23;20359;-85
2023/03/28 09:50:28;;;;;;;1.40;0.80;;;8.40;99.90;;;;;;6156701;23;20356;-86
2023/03/28 09:52:56;;;;;;;1.45;0.60;;;7.50;99.90;;;;;;6158203;23;20356;-86
2023/03/28 09:55:28;;;;;;;2.28;0.70;;;6.80;99.90;;;;;;6159348;23;20363;-85
2023/03/28 09:58:10;;;;;;;2.42;0.82;;;6.50;99.90;;;;;;6185157;23;20344;-84
2023/03/28 10:00:45;;;;;;;1.60;0.98;;;6.30;99.90;;;;;;6157404;23;20421;-85
2023/03/28 10:03:28;;;;;;;1.35;0.90;;;6.10;99.90;;;;;;6153298;23;20389;-84
2023/03/28 10:05:56;;;;;;;1.88;1.08;;;6.30;99.90;;;;;;6185464;23;20336;-86
2023/03/28 10:08:38;;;;;;;1.63;1.30;;;6.20;99.90;;;;;;6164605;23;20351;-85
2023/03/28 10:11:16;;;;;;;2.15;1.23;;;7.30;99.90;;;;;;6187024;23;20436;-87
2023/03/28 10:13:47;;;;;;;1.70;0.90;;;7.40;99.90;;;;;;6161739;23;20360;-85
2023/03/28 10:16:15;;;;;;;1.40;0.80;;;7.40;99.90;;;;;;6162412;23;20425;-85
2023/03/28 10:18:42;;;;;;;0.85;0.60;;;7.40;99.90;;;;;;6170727;23;20351;-87
2023/03/28 10:21:21;;;;;;;0.80;0.60;;;7.80;99.90;;;;;;6205796;23;20336;-84
2023/03/28 10:24:07;;;;;;;0.68;0.50;;;7.30;98.20;;;;;;6171738;23;20411;-84
2023/03/28 10:26:35;;;;;;;1.15;0.60;;;6.60;99.90;;;;;;6160693;23;20364;-83
2023/03/28 10:29:04;;;;;;;0.50;0.50;;;7.10;99.90;;;;;;6159421;23;20493;-87
2023/03/28 10:31:31;;;;;;;0.70;0.70;;;8.00;97.90;;;;;;6160984;23;20870;-84
2023/03/28 10:33:59;;;;;;;0.53;0.50;;;8.90;98.50;;;;;;6186138;23;20347;-84
2023/03/28 10:36:31;;;;;;;0.90;0.47;;;9.20;98.70;;;;;;6161089;23;20351;-84
2023/03/28 10:39:18;;;;;;;1.58;0.73;;;8.00;97.40;;;;;;6161568;23;20355;-85
2023/03/28 10:41:58;;;;;;;0.60;0.60;;;7.90;99.90;;;;;;6159632;23;20358;-83
2023/03/28 10:44:31;;;;;;;1.50;0.88;;;8.00;99.20;;;;;;6181813;23;20367;-86
2023/03/28 10:47:00;;;;;;;1.77;0.70;;;8.40;99.40;;;;;;6155926;23;20359;-85
2023/03/28 10:49:29;;;;;;;1.60;0.63;;;9.10;99.90;;;;;;6157568;23;20347;-85
2023/03/28 10:51:59;;;;;;;2.10;0.80;;;8.80;96.60;;;;;;6156634;23;20359;-85
2023/03/28 10:54:30;;;;;;;0.60;0.43;;;8.80;98.40;;;;;;6155229;23;20447;-85
2023/03/28 10:57:08;;;;;;;1.45;0.60;;;9.50;99.30;;;;;;6156132;23;20347;-84
2023/03/28 10:59:47;;;;;;;2.00;0.70;;;9.80;97.50;;;;;;6154935;23;20352;-85
2023/03/28 11:02:30;;;;;;;1.27;0.60;;;10.00;95.40;;;;;;6166605;23;20811;-84
2023/03/28 11:05:15;;;;;;;0.70;0.60;;;9.10;97.20;;;;;;6157399;23;20359;-85
2023/03/28 11:08:18;;;;;;;2.63;0.60;;;8.70;96.20;;;;;;6156116;23;20352;-86
2023/03/28 11:11:16;;;;;;;1.10;0.63;;;9.00;97.50;;;;;;6157895;23;20356;-85
2023/03/28 11:14:08;;;;;;;0.98;0.77;;;9.40;97.30;;;;;;6117030;23;20457;-87
2023/03/28 11:16:57;;;;;;;1.00;0.70;;;9.70;96.60;;;;;;6156883;23;20351;-84
2023/03/28 11:20:27;;;;;;;0.77;0.57;;;10.30;98.90;;;;;;6157557;23;20375;-84
2023/03/28 11:22:59;;;;;;;1.13;0.50;;;11.00;98.30;;;;;;6096226;23;20419;-84
2023/03/28 11:25:52;;;;;;;1.40;0.65;;;11.10;97.40;;;;;;6119156;23;20714;-82
2023/03/28 11:28:36;;;;;;;1.83;0.70;;;10.60;96.00;;;;;;6161564;23;20359;-84
2023/03/28 11:31:03;;;;;;;1.48;0.60;;;10.20;95.20;;;;;;6179305;23;20363;-84
2023/03/28 11:34:20;;;;;;;1.52;0.60;;;9.00;96.40;;;;;;6155362;23;20356;-81
2023/03/28 11:37:14;;;;;;;1.83;0.70;;;8.80;97.90;;;;;;6131082;23;20426;-84
2023/03/28 11:40:05;;;;;;;1.13;0.70;;;8.90;99.70;;;;;;6159000;23;20362;-82
2023/03/28 11:43:02;;;;;;;1.80;0.80;;;8.60;99.20;;;;;;6133512;23;20360;-84
2023/03/28 11:45:38;;;;;;;0.73;0.65;;;8.20;99.30;;;;;;6157702;23;20363;-84
2023/03/28 11:48:10;;;;;;;0.70;0.70;;;7.90;99.90;;;;;;6159047;23;20802;-82
2023/03/28 11:50:52;;;;;;;0.75;0.55;;;7.50;97.30;;;;;;6152682;23;20438;-83
2023/03/28 11:53:27;;;;;;;1.10;0.60;;;7.10;97.70;;;;;;6158666;23;20359;-82
2023/03/28 11:56:13;;;;;;;0.93;0.63;;;7.10;98.70;;;;;;6158627;23;20370;-83
2023/03/28 11:58:45;;;;;;;1.95;0.70;;;7.50;99.00;;;;;;6136946;23;20351;-84
2023/03/28 12:01:19;;;;;;;0.88;0.80;;;7.70;99.90;;;;;;6157740;23;20530;-85
2023/03/28 12:04:14;;;;;;;2.13;0.80;;;8.00;99.90;;;;;;6158464;23;20386;-85
2023/03/28 12:06:54;;;;;;;1.73;0.70;;;7.80;99.10;;;;;;6183983;23;20495;-85
2023/03/28 12:09:27;;;;;;;1.52;0.75;;;7.70;99.50;;;;;;6157926;23;20351;-86
2023/03/28 12:11:57;;;;;;;1.40;0.80;;;7.90;98.00;;;;;;6157333;23;20367;-83
2023/03/28 12:14:49;;;;;;;1.88;0.70;;;8.10;99.90;;;;;;6157413;23;20435;-84
2023/03/28 12:17:30;;;;;;;1.10;0.70;;;8.60;99.90;;;;;;6152939;23;20491;-84
2023/03/28 12:19:56;;;;;;;1.00;0.90;;;8.10;99.90;;;;;;6159737;23;20435;-82
2023/03/28 12:22:51;;;;;;;1.13;0.70;;;7.50;99.90;;;;;;6158572;23;20390;-83
2023/03/28 12:25:38;;;;;;;0.85;0.70;;;7.50;99.90;;;;;;6183922;23;20441;-82
2023/03/28 12:28:13;;;;;;;1.52;0.80;;;7.50;99.90;;;;;;6156962;23;20384;-82
2023/03/28 12:31:06;;;;;;;1.35;0.80;;;;;;;;;;6157222;23;20363;-83
2023/03/28 12:33:53;;;;;;;0.88;0.73;;;;;;;;;;6151854;23;20413;-83
2023/03/28 12:36:34;;;;;;;0.90;0.60;;;8.70;99.90;;;;;;6155892;23;20355;-83
2023/03/28 12:39:24;;;;;;;0.60;0.60;;;8.60;99.90;;;;;;6156419;23;20423;-83
2023/03/28 12:41:52;;;;;;;1.10;0.70;;;8.30;99.90;;;;;;6157669;23;20406;-82
2023/03/28 12:44:27;;;;;;;1.20;0.80;;;7.70;99.90;;;;;;6158590;23;20434;-83
2023/03/28 12:47:31;;;;;;;3.00;1.00;;;7.50;99.90;;;;;;6158193;23;20878;-84
2023/03/28 12:50:21;;;;;;;1.07;0.80;;;7.80;99.90;;;;;;6039417;23;20358;-84
2023/03/28 12:52:50;;;;;;;1.85;0.80;;;8.00;99.90;;;;;;6148688;23;20406;-83
2023/03/28 12:55:25;;;;;;;1.75;0.93;;;8.10;99.90;;;;;;6184124;23;20371;-83
2023/03/28 12:57:53;;;;;;;1.15;0.80;;;7.80;99.90;;;;;;6156340;23;20378;-83
2023/03/28 13:00:27;;;;;;;1.30;0.80;;;8.30;99.90;;;;;;6158133;23;20354;-83
2023/03/28 13:03:35;;;;;;;1.55;0.80;;;8.40;99.90;;;;;;6186912;23;20376;-83
2023/03/28 13:06:29;;;;;;;2.30;0.80;;;8.50;99.90;;;;;;6175287;23;20414;-83
2023/03/28 13:09:26;;;;;;;1.58;0.80;;;8.90;99.90;;;;;;6174945;23;20350;-83
2023/03/28 13:12:19;;;;;;;2.03;0.90;;;9.10;99.90;;;;;;6159250;23;20343;-82
2023/03/28 13:15:15;;;;;;;2.13;0.90;;;9.20;99.90;;;;;;6155270;23;20858;-84
2023/03/28 13:18:08;;;;;;;1.57;0.80;;;8.70;99.90;;;;;;6155823;23;20391;-85
2023/03/28 13:20:46;;;;;;;1.13;0.73;;;8.80;99.90;;;;;;6156136;23;20363;-84
2023/03/28 13:23:16;;;;;;;2.25;1.10;;;8.30;99.90;;;;;;6155598;23;20434;-84
2023/03/28 13:25:51;;;;;;;1.02;0.70;;;7.90;99.90;;;;;;6154995;23;20375;-84
2023/03/28 13:28:17;;;;;;;1.17;0.90;;;7.80;99.90;;;;;;6155491;23;20418;-84
2023/03/28 13:30:45;;;;;;;2.33;0.82;;;7.90;99.90;;;;;;6153925;23;20456;-84
2023/03/28 13:33:41;;;;;;;1.90;0.90;;;8.00;99.90;;;;;;6155531;23;20368;-85